Time;durP1;ratioP1;P1;durP2;ratioP2;P2;SDS_P1;SDS_P2;PMS_P1;PMS_P2;Temp;Humidity;BMP_temperature;BMP_pressure;BME280_temperature;BME280_humidity;BME280_pressure;Samples;Min_cycle;Max_cycle;Signal;HPM_P1;HPM_P2
2022/11/13 00:01:40;;;;;;;11.98;7.93;;;;;;;;;;6126444;19;19925;-64
2022/11/13 00:03:43;;;;;;;15.05;8.60;;;5.50;99.90;;;;;;6126080;19;19914;-64
2022/11/13 00:05:47;;;;;;;13.95;7.95;;;5.80;99.90;;;;;;6127021;19;19922;-64
2022/11/13 00:07:51;;;;;;;13.70;8.55;;;5.70;99.90;;;;;;6125955;19;19942;-64
2022/11/13 00:09:55;;;;;;;11.60;7.55;;;5.70;99.90;;;;;;6126510;19;19995;-64
2022/11/13 00:12:01;;;;;;;13.23;8.35;;;5.70;99.90;;;;;;6126124;19;20566;-65
2022/11/13 00:14:06;;;;;;;13.63;8.50;;;5.70;99.90;;;;;;6126138;19;19915;-65
2022/11/13 00:16:14;;;;;;;13.90;8.48;;;5.80;99.90;;;;;;6126301;19;19915;-64
2022/11/13 00:18:18;;;;;;;14.93;8.77;;;5.70;99.90;;;;;;6125771;19;19919;-65
2022/11/13 00:20:22;;;;;;;11.65;7.30;;;5.80;99.90;;;;;;6125878;19;20328;-64
2022/11/13 00:22:26;;;;;;;13.23;8.13;;;5.60;99.90;;;;;;6126314;19;19935;-64
2022/11/13 00:24:30;;;;;;;12.15;7.78;;;5.60;99.90;;;;;;6125920;19;20272;-64
2022/11/13 00:26:34;;;;;;;11.68;8.43;;;5.90;99.90;;;;;;6125783;19;19928;-64
2022/11/13 00:28:41;;;;;;;14.48;8.52;;;5.90;99.90;;;;;;6128683;19;19995;-64
2022/11/13 00:30:45;;;;;;;11.93;7.82;;;5.90;99.90;;;;;;6131066;19;19941;-64
2022/11/13 00:32:49;;;;;;;14.88;8.48;;;;;;;;;;6132192;19;19915;-64
2022/11/13 00:34:53;;;;;;;13.48;7.75;;;;;;;;;;6129084;19;19914;-64
2022/11/13 00:36:57;;;;;;;13.10;7.63;;;5.90;99.90;;;;;;6131349;19;19918;-64
2022/11/13 00:39:01;;;;;;;12.77;8.10;;;5.80;99.90;;;;;;6129420;19;19922;-66
2022/11/13 00:41:05;;;;;;;12.02;6.97;;;6.00;99.90;;;;;;6130874;19;19921;-64
2022/11/13 00:43:09;;;;;;;13.57;7.63;;;6.00;99.90;;;;;;6130202;19;20013;-64
2022/11/13 00:45:16;;;;;;;10.63;7.13;;;5.80;99.90;;;;;;6131120;19;20399;-64
2022/11/13 00:47:20;;;;;;;13.35;7.75;;;;;;;;;;6131204;19;19942;-64
2022/11/13 00:49:24;;;;;;;13.70;7.97;;;5.70;99.90;;;;;;6128614;19;19911;-64
2022/11/13 00:51:28;;;;;;;12.73;7.93;;;6.00;99.90;;;;;;6130992;19;20350;-64
2022/11/13 00:53:32;;;;;;;12.95;7.32;;;6.00;99.90;;;;;;6130798;19;19918;-65
2022/11/13 00:55:36;;;;;;;12.77;8.02;;;;;;;;;;6130333;19;20268;-65
2022/11/13 00:57:40;;;;;;;12.95;7.25;;;6.00;99.90;;;;;;6130664;19;19918;-64
2022/11/13 00:59:43;;;;;;;13.18;7.72;;;6.10;99.90;;;;;;6130741;19;20380;-64
2022/11/13 01:01:50;;;;;;;13.63;7.72;;;5.90;99.90;;;;;;6130773;19;20260;-64
2022/11/13 01:03:54;;;;;;;12.90;8.23;;;5.90;99.90;;;;;;6130699;19;19914;-64
2022/11/13 01:05:57;;;;;;;12.98;7.80;;;6.10;99.90;;;;;;6130402;19;19918;-64
2022/11/13 01:08:02;;;;;;;11.88;8.70;;;;;;;;;;6130253;19;19919;-64
2022/11/13 01:10:06;;;;;;;11.57;7.38;;;6.00;99.90;;;;;;6130906;19;19915;-64
2022/11/13 01:12:10;;;;;;;15.27;7.30;;;;;;;;;;6130414;19;19914;-63
2022/11/13 01:14:14;;;;;;;13.32;7.50;;;6.00;99.90;;;;;;6130743;19;20009;-63
2022/11/13 01:16:20;;;;;;;10.93;7.63;;;6.10;99.90;;;;;;6130258;19;19910;-63
2022/11/13 01:18:26;;;;;;;12.63;7.55;;;6.00;99.90;;;;;;6130220;19;20275;-63
2022/11/13 01:20:31;;;;;;;12.55;7.75;;;5.80;99.90;;;;;;6130191;19;19918;-65
2022/11/13 01:22:35;;;;;;;11.00;7.03;;;6.00;99.90;;;;;;6130188;19;20270;-65
2022/11/13 01:24:39;;;;;;;12.25;7.82;;;6.00;99.90;;;;;;6128674;19;20014;-66
2022/11/13 01:26:43;;;;;;;12.25;7.68;;;5.90;99.90;;;;;;6130419;19;19930;-65
2022/11/13 01:28:48;;;;;;;12.35;7.57;;;5.90;99.90;;;;;;6129243;19;19911;-65
2022/11/13 01:30:51;;;;;;;13.80;7.88;;;5.90;99.90;;;;;;6133005;19;19935;-64
2022/11/13 01:32:55;;;;;;;12.32;7.47;;;5.90;99.90;;;;;;6129943;19;19926;-65
2022/11/13 01:35:02;;;;;;;11.90;7.43;;;5.90;99.90;;;;;;6126584;19;19939;-65
2022/11/13 01:37:06;;;;;;;15.45;7.30;;;6.00;99.90;;;;;;6130283;19;19925;-66
2022/11/13 01:39:12;;;;;;;11.02;7.20;;;6.00;99.90;;;;;;6128830;19;19923;-65
2022/11/13 01:41:19;;;;;;;11.32;7.45;;;6.10;99.90;;;;;;6129826;19;19911;-65
2022/11/13 01:43:27;;;;;;;14.02;7.93;;;6.00;99.90;;;;;;6129703;19;20347;-64
2022/11/13 01:46:01;;;;;;;12.50;7.68;;;5.90;99.90;;;;;;6129474;19;19946;-65
2022/11/13 01:48:05;;;;;;;12.57;7.78;;;6.10;99.90;;;;;;6129766;19;19918;-65
2022/11/13 01:50:16;;;;;;;13.00;8.48;;;5.90;99.90;;;;;;6129259;19;19915;-65
2022/11/13 01:52:22;;;;;;;11.18;7.63;;;6.20;99.90;;;;;;6129874;19;20454;-65
2022/11/13 01:54:30;;;;;;;13.10;7.68;;;6.00;99.90;;;;;;6129299;19;20332;-65
2022/11/13 01:56:34;;;;;;;13.20;7.85;;;6.20;99.90;;;;;;6129031;19;19928;-65
2022/11/13 01:58:39;;;;;;;12.02;7.05;;;6.10;99.90;;;;;;6128858;19;19953;-65
2022/11/13 02:00:43;;;;;;;11.95;8.07;;;6.10;99.90;;;;;;6129072;19;19938;-65
2022/11/13 02:02:47;;;;;;;12.77;7.60;;;6.10;99.90;;;;;;6129293;19;19915;-65
2022/11/13 02:04:51;;;;;;;12.40;8.45;;;;;;;;;;6129298;19;19914;-65
2022/11/13 02:07:02;;;;;;;13.55;7.18;;;6.10;99.90;;;;;;6124027;19;20407;-65
2022/11/13 02:09:07;;;;;;;13.68;7.72;;;6.10;99.90;;;;;;6127908;19;20277;-65
2022/11/13 02:11:11;;;;;;;15.43;8.13;;;;;;;;;;6129351;19;19945;-65
2022/11/13 02:13:15;;;;;;;11.93;8.43;;;6.00;99.90;;;;;;6128918;19;19946;-65
2022/11/13 02:15:22;;;;;;;11.85;7.82;;;5.90;99.90;;;;;;6129021;19;19954;-65
2022/11/13 02:17:29;;;;;;;13.70;8.63;;;6.10;99.90;;;;;;6130224;19;20360;-65
2022/11/13 02:19:38;;;;;;;14.30;7.18;;;5.90;99.90;;;;;;6128961;19;19910;-65
2022/11/13 02:21:49;;;;;;;12.48;7.50;;;6.10;99.90;;;;;;6128623;19;19938;-65
2022/11/13 02:24:02;;;;;;;13.85;7.40;;;6.00;99.90;;;;;;6129376;19;19919;-65
2022/11/13 02:26:11;;;;;;;11.20;7.45;;;5.90;99.90;;;;;;6128053;19;19911;-65
2022/11/13 02:28:15;;;;;;;13.05;7.47;;;5.90;99.90;;;;;;6129237;19;19939;-65
2022/11/13 02:30:21;;;;;;;11.50;7.18;;;5.80;99.90;;;;;;6126666;19;19945;-65
2022/11/13 02:32:25;;;;;;;10.40;7.10;;;5.80;99.90;;;;;;6128518;19;19907;-65
2022/11/13 02:34:29;;;;;;;9.82;6.78;;;5.80;99.90;;;;;;6127507;19;19986;-65
2022/11/13 02:36:33;;;;;;;11.02;6.97;;;5.80;99.90;;;;;;6128507;19;19938;-65
2022/11/13 02:38:39;;;;;;;10.65;6.93;;;5.80;99.90;;;;;;6127731;19;19931;-65
2022/11/13 02:40:43;;;;;;;12.88;6.57;;;5.50;99.90;;;;;;6128878;19;19915;-65
2022/11/13 02:42:49;;;;;;;11.77;7.38;;;5.70;99.90;;;;;;6128350;19;19911;-65
2022/11/13 02:44:54;;;;;;;10.65;7.03;;;5.70;99.90;;;;;;6128500;19;19934;-65
2022/11/13 02:46:58;;;;;;;12.07;7.18;;;5.90;99.90;;;;;;6128240;19;19938;-65
2022/11/13 02:49:01;;;;;;;11.15;6.90;;;5.80;99.90;;;;;;6128011;19;19914;-66
2022/11/13 02:51:06;;;;;;;14.75;7.63;;;5.90;99.90;;;;;;6127076;19;19938;-65
2022/11/13 02:53:10;;;;;;;12.15;7.35;;;;;;;;;;6128205;19;19922;-65
2022/11/13 02:55:14;;;;;;;13.15;7.30;;;5.80;99.90;;;;;;6128148;19;20364;-65
2022/11/13 02:57:18;;;;;;;13.82;7.93;;;5.90;99.90;;;;;;6128075;19;19922;-65
2022/11/13 02:59:24;;;;;;;15.73;7.70;;;5.60;99.90;;;;;;6128521;19;19919;-64
2022/11/13 03:01:28;;;;;;;12.63;7.50;;;5.60;99.90;;;;;;6128244;19;20243;-65
2022/11/13 03:03:32;;;;;;;10.00;6.85;;;5.60;99.90;;;;;;6128202;19;20265;-65
2022/11/13 03:05:36;;;;;;;14.85;7.38;;;6.70;99.90;;;;;;6128480;19;19911;-65
2022/11/13 03:07:40;;;;;;;13.98;7.25;;;;;;;;;;6128287;19;19938;-65
2022/11/13 03:09:44;;;;;;;13.07;7.53;;;5.70;99.90;;;;;;6126915;19;19942;-65
2022/11/13 03:11:47;;;;;;;10.85;7.15;;;5.50;99.90;;;;;;6127887;19;19919;-65
2022/11/13 03:13:51;;;;;;;10.52;7.07;;;;;;;;;;6127824;19;19914;-64
2022/11/13 03:15:58;;;;;;;11.35;6.85;;;5.60;99.90;;;;;;6127850;19;19922;-65
2022/11/13 03:18:05;;;;;;;10.02;6.57;;;5.70;99.90;;;;;;6127850;19;19911;-65
2022/11/13 03:20:09;;;;;;;10.52;6.60;;;5.50;99.90;;;;;;6127803;19;19914;-64
2022/11/13 03:22:13;;;;;;;11.63;7.22;;;5.50;99.90;;;;;;6128165;19;20249;-65
2022/11/13 03:24:17;;;;;;;10.68;7.30;;;5.60;99.90;;;;;;6127431;19;19915;-65
2022/11/13 03:26:21;;;;;;;10.23;7.43;;;;;;;;;;6127236;19;19915;-65
2022/11/13 03:28:25;;;;;;;12.63;7.25;;;;;;;;;;6128153;19;19911;-65
2022/11/13 03:30:29;;;;;;;10.57;7.03;;;5.50;99.90;;;;;;6117692;19;20506;-64
2022/11/13 03:32:36;;;;;;;11.57;7.68;;;5.70;99.90;;;;;;6127660;19;19934;-64
2022/11/13 03:34:40;;;;;;;12.68;7.40;;;5.60;99.90;;;;;;6126360;19;20336;-64
2022/11/13 03:36:44;;;;;;;11.60;7.22;;;5.60;99.90;;;;;;6127049;19;19926;-65
2022/11/13 03:38:48;;;;;;;10.27;6.57;;;5.30;99.90;;;;;;6126660;19;19919;-64
2022/11/13 03:40:52;;;;;;;11.27;6.60;;;5.50;99.90;;;;;;6127266;19;20364;-64
2022/11/13 03:42:56;;;;;;;12.85;7.43;;;5.40;99.90;;;;;;6127462;19;19926;-64
2022/11/13 03:45:00;;;;;;;14.73;7.13;;;4.10;99.90;;;;;;6127065;19;19914;-65
2022/11/13 03:47:04;;;;;;;11.32;6.95;;;5.40;99.90;;;;;;6127099;19;19914;-64
2022/11/13 03:49:11;;;;;;;11.20;7.18;;;5.30;99.90;;;;;;6126685;19;19929;-64
2022/11/13 03:51:15;;;;;;;11.10;7.20;;;;;;;;;;6126957;19;20336;-64
2022/11/13 03:53:19;;;;;;;12.65;6.70;;;;;;;;;;6126979;19;19942;-64
2022/11/13 03:55:23;;;;;;;13.00;7.38;;;4.60;99.90;;;;;;6121495;19;20018;-64
2022/11/13 03:57:26;;;;;;;11.27;7.30;;;5.40;99.90;;;;;;6126893;19;19915;-64
2022/11/13 03:59:30;;;;;;;11.48;6.82;;;5.30;99.90;;;;;;6126698;19;19925;-65
2022/11/13 04:01:34;;;;;;;11.93;7.20;;;5.40;99.90;;;;;;6125603;19;19922;-64
2022/11/13 04:03:38;;;;;;;8.75;6.60;;;5.40;99.90;;;;;;6125403;19;19911;-64
2022/11/13 04:05:45;;;;;;;10.68;6.72;;;5.40;99.90;;;;;;6126783;19;20272;-64
2022/11/13 04:07:50;;;;;;;10.48;6.60;;;;;;;;;;6126515;19;20347;-64
2022/11/13 04:09:53;;;;;;;11.02;6.80;;;5.30;99.90;;;;;;6124264;19;19929;-64
2022/11/13 04:11:57;;;;;;;12.07;7.15;;;;;;;;;;6118105;19;20007;-64
2022/11/13 04:14:02;;;;;;;12.80;8.07;;;;;;;;;;6126375;19;19938;-63
2022/11/13 04:16:06;;;;;;;12.77;6.68;;;5.50;99.90;;;;;;6126587;19;19915;-64
2022/11/13 04:18:10;;;;;;;10.13;6.75;;;;;;;;;;6126387;19;20284;-64
2022/11/13 04:20:14;;;;;;;12.90;6.95;;;5.30;99.90;;;;;;6126168;19;19938;-64
2022/11/13 04:22:21;;;;;;;10.98;6.65;;;5.40;99.90;;;;;;6126147;19;20341;-64
2022/11/13 04:24:24;;;;;;;9.68;7.18;;;5.30;99.90;;;;;;6126000;19;19922;-64
2022/11/13 04:26:28;;;;;;;10.65;6.85;;;5.20;99.90;;;;;;6128803;19;19915;-64
2022/11/13 04:28:32;;;;;;;9.65;6.43;;;;;;;;;;6126158;19;19918;-64
2022/11/13 04:30:36;;;;;;;11.18;7.28;;;5.10;99.90;;;;;;6124522;19;20288;-64
2022/11/13 04:32:40;;;;;;;11.60;7.28;;;5.30;99.90;;;;;;6125950;19;19910;-64
2022/11/13 04:34:44;;;;;;;11.13;6.28;;;5.30;99.90;;;;;;6124624;19;19942;-64
2022/11/13 04:36:48;;;;;;;14.65;6.63;;;4.90;99.90;;;;;;6126069;19;19941;-65
2022/11/13 04:38:54;;;;;;;9.93;6.45;;;5.20;99.90;;;;;;6124849;19;19922;-64
2022/11/13 04:43:14;;;;;;;12.88;7.05;;;5.10;99.90;;;;;;6125684;19;19976;-64
2022/11/13 04:45:20;;;;;;;9.55;6.00;;;5.10;99.90;;;;;;6125550;19;19945;-65
2022/11/13 04:47:24;;;;;;;11.95;7.05;;;5.00;99.90;;;;;;6125329;19;20287;-64
2022/11/13 04:49:28;;;;;;;10.00;6.35;;;5.00;99.90;;;;;;6125176;19;19911;-64
2022/11/13 04:51:32;;;;;;;10.82;6.55;;;4.90;99.90;;;;;;6125726;19;19915;-64
2022/11/13 04:53:36;;;;;;;9.60;6.50;;;4.80;99.90;;;;;;6125427;19;19915;-64
2022/11/13 04:55:42;;;;;;;10.77;6.70;;;4.80;99.90;;;;;;6124921;19;19930;-64
2022/11/13 04:57:46;;;;;;;10.75;6.60;;;4.90;99.90;;;;;;6125392;19;19929;-64
2022/11/13 04:59:50;;;;;;;11.10;6.07;;;4.90;99.90;;;;;;6125424;19;19915;-65
2022/11/13 05:01:54;;;;;;;10.50;6.47;;;5.10;99.90;;;;;;6125144;19;20328;-64
2022/11/13 05:03:58;;;;;;;9.27;5.82;;;4.90;99.90;;;;;;6125028;19;20018;-64
2022/11/13 05:06:06;;;;;;;12.00;7.20;;;4.70;99.90;;;;;;6125322;19;19918;-64
2022/11/13 05:08:10;;;;;;;10.60;6.03;;;4.70;99.90;;;;;;6124807;19;20336;-65
2022/11/13 05:10:14;;;;;;;12.05;7.30;;;4.80;99.90;;;;;;6123943;19;19915;-64
2022/11/13 05:12:20;;;;;;;12.43;6.38;;;4.90;99.90;;;;;;6124845;19;19919;-64
2022/11/13 05:14:24;;;;;;;10.40;6.45;;;4.80;99.90;;;;;;6129109;19;19960;-64
2022/11/13 05:16:28;;;;;;;11.15;6.82;;;4.80;99.90;;;;;;6130457;19;19955;-64
2022/11/13 05:18:32;;;;;;;9.70;5.72;;;4.80;99.90;;;;;;6130690;19;19911;-65
2022/11/13 05:20:36;;;;;;;10.38;6.30;;;4.80;99.90;;;;;;6130348;19;19911;-64
2022/11/13 05:22:40;;;;;;;9.77;6.60;;;4.70;99.90;;;;;;6130192;19;19914;-64
2022/11/13 05:24:44;;;;;;;11.05;6.60;;;4.80;99.90;;;;;;6131974;19;19919;-64
2022/11/13 05:26:48;;;;;;;11.88;7.70;;;4.80;99.90;;;;;;6130225;19;19920;-65
2022/11/13 05:28:54;;;;;;;9.73;6.32;;;4.80;99.90;;;;;;6130560;19;20359;-64
2022/11/13 05:31:05;;;;;;;11.35;6.63;;;4.80;99.90;;;;;;6128756;19;19915;-65
2022/11/13 05:33:09;;;;;;;10.32;5.85;;;4.70;99.90;;;;;;6130641;19;19934;-64
2022/11/13 05:35:13;;;;;;;10.02;5.85;;;4.70;99.90;;;;;;6126724;19;19926;-64
2022/11/13 05:37:17;;;;;;;10.77;6.60;;;4.90;99.90;;;;;;6130162;19;19919;-64
2022/11/13 05:39:21;;;;;;;10.57;6.95;;;4.70;99.90;;;;;;6128377;19;20625;-64
2022/11/13 05:41:26;;;;;;;9.57;6.40;;;4.70;99.90;;;;;;6130328;19;20347;-64
2022/11/13 05:43:29;;;;;;;11.15;6.60;;;4.30;99.90;;;;;;6130682;19;19970;-64
2022/11/13 05:45:37;;;;;;;10.73;6.25;;;4.30;99.90;;;;;;6129863;19;19925;-64
2022/11/13 05:47:40;;;;;;;11.45;6.53;;;4.60;99.90;;;;;;6129977;19;19923;-64
2022/11/13 05:49:44;;;;;;;11.85;6.18;;;4.50;99.90;;;;;;6129272;19;19978;-64
2022/11/13 05:51:48;;;;;;;9.95;6.43;;;4.70;99.90;;;;;;6129841;19;19970;-64
2022/11/13 05:53:53;;;;;;;8.95;5.97;;;4.40;99.90;;;;;;6129483;19;20060;-64
2022/11/13 05:56:01;;;;;;;9.80;6.05;;;4.50;99.90;;;;;;6129197;19;19937;-65
2022/11/13 05:58:05;;;;;;;10.85;5.80;;;;;;;;;;6129618;19;20277;-64
2022/11/13 06:00:10;;;;;;;9.00;5.65;;;4.40;99.90;;;;;;6129858;19;19915;-64
2022/11/13 06:02:16;;;;;;;9.88;6.28;;;4.30;99.90;;;;;;6129606;19;19935;-64
2022/11/13 06:04:21;;;;;;;8.32;5.50;;;;;;;;;;6129473;19;20244;-64
2022/11/13 06:06:26;;;;;;;9.27;5.65;;;4.20;99.90;;;;;;6129545;19;20242;-64
2022/11/13 06:08:30;;;;;;;10.30;6.47;;;4.10;99.90;;;;;;6129757;19;19942;-64
2022/11/13 06:10:34;;;;;;;9.02;5.95;;;4.30;99.90;;;;;;6128197;19;20380;-64
2022/11/13 06:12:38;;;;;;;9.02;5.85;;;4.30;99.90;;;;;;6129775;19;19910;-64
2022/11/13 06:14:42;;;;;;;8.75;6.13;;;4.00;99.90;;;;;;6129158;19;19934;-64
2022/11/13 06:16:46;;;;;;;9.15;5.38;;;;;;;;;;6129304;19;19938;-64
2022/11/13 06:18:55;;;;;;;11.45;5.72;;;4.20;99.90;;;;;;6129180;19;19934;-64
2022/11/13 06:21:03;;;;;;;8.88;6.20;;;4.10;99.90;;;;;;6129185;19;19915;-64
2022/11/13 06:23:07;;;;;;;9.27;5.43;;;4.00;99.90;;;;;;6130517;19;19918;-64
2022/11/13 06:25:11;;;;;;;8.93;5.75;;;4.20;99.90;;;;;;6126415;19;19938;-64
2022/11/13 06:27:15;;;;;;;9.27;5.45;;;4.30;99.90;;;;;;6128871;19;19910;-65
2022/11/13 06:29:19;;;;;;;10.35;6.00;;;;;;;;;;6128961;19;19919;-65
2022/11/13 06:31:25;;;;;;;9.40;5.95;;;4.10;99.90;;;;;;6127586;19;19915;-64
2022/11/13 06:33:30;;;;;;;8.68;6.10;;;4.00;99.90;;;;;;6128682;19;19941;-65
2022/11/13 06:35:36;;;;;;;9.90;5.63;;;4.00;99.90;;;;;;6128871;19;20334;-64
2022/11/13 06:37:40;;;;;;;9.38;6.13;;;4.10;99.90;;;;;;6128650;19;19914;-65
2022/11/13 06:39:44;;;;;;;8.50;5.68;;;4.20;99.90;;;;;;6127106;19;19919;-64
2022/11/13 06:41:48;;;;;;;10.27;6.05;;;4.10;99.90;;;;;;6128807;19;19919;-65
2022/11/13 06:43:52;;;;;;;9.18;5.22;;;4.10;99.90;;;;;;6128618;19;20268;-65
2022/11/13 06:45:57;;;;;;;9.48;6.38;;;4.20;99.90;;;;;;6128473;19;19970;-65
2022/11/13 06:48:02;;;;;;;9.20;6.30;;;4.30;99.90;;;;;;6128706;19;19915;-65
2022/11/13 06:50:07;;;;;;;11.30;6.00;;;4.00;99.90;;;;;;6129023;19;19911;-65
2022/11/13 06:52:13;;;;;;;8.82;5.88;;;4.20;99.90;;;;;;6128407;19;19918;-65
2022/11/13 06:54:17;;;;;;;10.10;6.55;;;4.30;99.90;;;;;;6128073;19;19918;-65
2022/11/13 06:56:22;;;;;;;10.25;6.90;;;4.20;99.90;;;;;;6128057;19;19915;-64
2022/11/13 06:58:26;;;;;;;11.00;6.97;;;4.40;99.90;;;;;;6127919;19;19914;-64
2022/11/13 07:00:30;;;;;;;10.05;5.90;;;4.20;99.90;;;;;;6128651;19;20364;-65
2022/11/13 07:02:34;;;;;;;8.70;6.22;;;4.40;99.90;;;;;;6128015;19;20302;-65
2022/11/13 07:04:38;;;;;;;10.20;6.18;;;;;;;;;;6128189;19;19942;-65
2022/11/13 07:06:42;;;;;;;9.38;6.95;;;4.30;99.90;;;;;;6128467;19;19923;-64
2022/11/13 07:08:48;;;;;;;11.73;6.05;;;4.30;99.90;;;;;;6127792;19;20313;-65
2022/11/13 07:10:56;;;;;;;9.23;6.10;;;4.30;99.90;;;;;;6127363;19;19955;-65
2022/11/13 07:13:01;;;;;;;10.13;6.57;;;4.30;99.90;;;;;;6128014;19;19938;-64
2022/11/13 07:15:05;;;;;;;8.07;5.68;;;;;;;;;;6127859;19;19938;-64
2022/11/13 07:17:09;;;;;;;10.98;6.10;;;4.40;99.90;;;;;;6128123;19;19991;-65
2022/11/13 07:19:13;;;;;;;10.93;6.15;;;4.50;99.90;;;;;;6127690;19;20289;-65
2022/11/13 07:21:17;;;;;;;12.40;6.00;;;4.50;99.90;;;;;;6128245;19;19950;-64
2022/11/13 07:23:21;;;;;;;9.20;5.60;;;;;;;;;;6127756;19;19914;-65
2022/11/13 07:25:29;;;;;;;12.50;6.28;;;4.40;99.90;;;;;;6127275;19;19918;-65
2022/11/13 07:27:32;;;;;;;11.20;6.18;;;4.50;99.90;;;;;;6127733;19;19911;-65
2022/11/13 07:29:37;;;;;;;11.35;5.95;;;4.40;99.90;;;;;;6127394;19;20275;-65
2022/11/13 07:31:41;;;;;;;10.98;6.22;;;4.70;99.90;;;;;;6126740;19;20261;-65
2022/11/13 07:33:46;;;;;;;10.57;6.20;;;4.60;99.90;;;;;;6127473;19;19914;-65
2022/11/13 07:35:50;;;;;;;8.70;6.05;;;4.80;99.90;;;;;;6127032;19;20015;-64
2022/11/13 07:37:57;;;;;;;14.45;6.28;;;4.50;99.90;;;;;;6127232;19;19919;-64
2022/11/13 07:40:01;;;;;;;12.95;5.70;;;4.50;99.90;;;;;;6126980;19;19923;-65
2022/11/13 07:42:08;;;;;;;7.50;5.55;;;4.60;99.90;;;;;;6127250;19;20351;-65
2022/11/13 07:44:12;;;;;;;9.43;5.47;;;4.50;99.90;;;;;;6126920;19;20343;-65
2022/11/13 07:46:17;;;;;;;9.98;6.40;;;4.60;99.90;;;;;;6126906;19;19918;-65
2022/11/13 07:48:21;;;;;;;10.30;5.95;;;4.50;99.90;;;;;;6127160;19;19919;-63
2022/11/13 07:50:24;;;;;;;10.50;5.72;;;4.60;99.90;;;;;;6125459;19;19918;-63
2022/11/13 07:52:28;;;;;;;9.10;5.80;;;5.00;99.90;;;;;;6124935;19;19915;-63
2022/11/13 07:54:32;;;;;;;9.27;5.60;;;;;;;;;;6126818;19;19918;-64
2022/11/13 07:56:36;;;;;;;8.30;6.00;;;;;;;;;;6126370;19;19942;-63
2022/11/13 07:58:43;;;;;;;8.75;5.53;;;4.60;99.90;;;;;;6126760;19;19918;-64
2022/11/13 08:00:47;;;;;;;8.73;5.78;;;4.60;99.90;;;;;;6126543;19;19915;-64
2022/11/13 08:02:51;;;;;;;9.00;6.55;;;4.80;99.90;;;;;;6126528;19;20271;-64
2022/11/13 08:04:55;;;;;;;10.35;6.75;;;4.70;99.90;;;;;;6126279;19;20340;-63
2022/11/13 08:06:58;;;;;;;8.68;5.72;;;4.70;99.90;;;;;;6126410;19;19929;-64
2022/11/13 08:09:03;;;;;;;8.73;6.38;;;;;;;;;;6126440;19;19919;-66
2022/11/13 08:11:08;;;;;;;12.82;6.35;;;4.90;99.90;;;;;;6126080;19;20304;-63
2022/11/13 08:13:12;;;;;;;10.50;6.40;;;5.00;99.90;;;;;;6126474;19;19922;-64
2022/11/13 08:15:19;;;;;;;8.75;5.85;;;4.80;99.90;;;;;;6126431;19;20018;-64
2022/11/13 08:17:23;;;;;;;10.10;5.88;;;4.80;99.90;;;;;;6126406;19;19914;-63
2022/11/13 08:19:27;;;;;;;10.23;5.97;;;5.20;99.90;;;;;;6126212;19;19911;-64
2022/11/13 08:21:31;;;;;;;9.50;6.43;;;;;;;;;;6126524;19;19942;-64
2022/11/13 08:23:34;;;;;;;14.05;6.60;;;5.10;99.90;;;;;;6125982;19;19939;-63
2022/11/13 08:25:38;;;;;;;9.85;6.75;;;5.20;99.90;;;;;;6125756;19;19915;-64
2022/11/13 08:27:42;;;;;;;12.27;6.78;;;4.90;99.90;;;;;;6125830;19;19925;-64
2022/11/13 08:29:46;;;;;;;12.30;6.68;;;5.10;99.90;;;;;;6126038;19;19926;-64
2022/11/13 08:31:52;;;;;;;11.23;6.15;;;5.30;99.90;;;;;;6125175;19;19930;-64
2022/11/13 08:33:56;;;;;;;10.40;6.18;;;5.00;99.90;;;;;;6124991;19;19919;-64
2022/11/13 08:36:01;;;;;;;10.57;6.07;;;5.10;99.90;;;;;;6125755;19;19914;-64
2022/11/13 08:38:05;;;;;;;10.77;6.43;;;5.20;99.90;;;;;;6125589;19;19939;-63
2022/11/13 08:40:14;;;;;;;9.23;6.05;;;5.00;99.90;;;;;;6124540;19;19918;-65
2022/11/13 08:42:18;;;;;;;9.73;6.38;;;5.10;99.90;;;;;;6125443;19;20264;-65
2022/11/13 08:44:22;;;;;;;9.18;5.95;;;5.60;99.90;;;;;;6125712;19;19942;-64
2022/11/13 08:46:27;;;;;;;11.07;6.05;;;5.30;99.90;;;;;;6125189;19;19915;-66
2022/11/13 08:48:33;;;;;;;11.38;7.05;;;5.30;99.90;;;;;;6127033;19;19914;-66
2022/11/13 08:50:37;;;;;;;10.38;6.47;;;5.60;99.90;;;;;;6130910;19;19919;-65
2022/11/13 08:52:41;;;;;;;12.85;7.85;;;;;;;;;;6128985;19;19922;-63
2022/11/13 08:54:45;;;;;;;11.55;6.70;;;5.30;99.90;;;;;;6130987;19;20009;-65
2022/11/13 08:56:50;;;;;;;12.65;6.50;;;5.60;99.90;;;;;;6131245;19;19919;-63
2022/11/13 08:58:54;;;;;;;9.30;6.72;;;;;;;;;;6131293;19;20230;-63
2022/11/13 09:01:02;;;;;;;11.90;6.75;;;5.70;99.90;;;;;;6130908;19;19914;-63
2022/11/13 09:03:06;;;;;;;10.93;6.97;;;6.00;99.90;;;;;;6130802;19;19918;-64
2022/11/13 09:05:13;;;;;;;11.88;7.10;;;5.80;99.90;;;;;;6130917;19;19918;-64
2022/11/13 09:07:17;;;;;;;9.90;6.20;;;;;;;;;;6131126;19;19934;-64
2022/11/13 09:09:21;;;;;;;9.48;6.50;;;;;;;;;;6131044;19;19932;-63
2022/11/13 09:11:26;;;;;;;8.75;6.03;;;;;;;;;;6129947;19;20256;-65
2022/11/13 09:13:30;;;;;;;11.40;6.53;;;;;;;;;;6130630;19;19911;-64
2022/11/13 09:15:34;;;;;;;11.15;7.25;;;;;;;;;;6130575;19;19918;-64
2022/11/13 09:17:38;;;;;;;8.90;6.45;;;6.10;99.90;;;;;;6130452;19;19938;-64
2022/11/13 09:19:42;;;;;;;12.45;6.75;;;;;;;;;;6133951;19;19928;-64
2022/11/13 09:21:49;;;;;;;8.77;6.60;;;6.40;99.90;;;;;;6130489;19;19938;-64
2022/11/13 09:23:53;;;;;;;14.32;6.78;;;6.40;99.90;;;;;;6130640;19;19946;-64
2022/11/13 09:25:57;;;;;;;8.82;6.60;;;6.60;99.90;;;;;;6127746;19;20011;-64
2022/11/13 09:28:02;;;;;;;10.75;6.47;;;7.00;99.90;;;;;;6130073;19;19926;-64
2022/11/13 09:30:07;;;;;;;9.35;5.93;;;6.60;99.90;;;;;;6130336;19;20333;-64
2022/11/13 09:32:11;;;;;;;9.95;6.53;;;6.80;99.90;;;;;;6128937;19;19931;-64
2022/11/13 09:34:15;;;;;;;10.98;6.57;;;6.70;99.90;;;;;;6128992;19;20374;-64
2022/11/13 09:36:18;;;;;;;10.23;6.60;;;6.60;99.90;;;;;;6130220;19;19926;-64
2022/11/13 09:38:25;;;;;;;12.18;6.68;;;6.80;99.90;;;;;;6129606;19;19961;-64
2022/11/13 09:40:35;;;;;;;9.35;6.35;;;7.20;99.90;;;;;;6129925;19;19919;-64
2022/11/13 09:42:42;;;;;;;8.77;6.50;;;6.90;99.90;;;;;;6129683;19;19914;-64
2022/11/13 09:44:50;;;;;;;12.55;6.72;;;7.20;99.90;;;;;;6129581;19;19915;-64
2022/11/13 09:46:59;;;;;;;12.80;6.80;;;6.90;99.90;;;;;;6130097;19;19919;-63
2022/11/13 09:49:08;;;;;;;11.13;6.20;;;7.50;99.90;;;;;;6129921;19;19918;-64
2022/11/13 09:51:16;;;;;;;11.20;6.75;;;7.10;99.90;;;;;;6129622;19;19942;-64
2022/11/13 09:53:21;;;;;;;10.25;7.53;;;7.70;99.90;;;;;;6129559;19;19918;-64
2022/11/13 09:55:42;;;;;;;9.40;6.68;;;7.40;99.90;;;;;;6128901;19;19919;-64
2022/11/13 09:57:52;;;;;;;11.20;7.32;;;7.60;99.90;;;;;;6129791;19;19914;-64
2022/11/13 10:00:01;;;;;;;11.05;7.00;;;7.50;99.90;;;;;;6129338;19;19918;-64
2022/11/13 10:02:16;;;;;;;11.30;7.35;;;7.60;99.90;;;;;;6129659;19;19914;-65
2022/11/13 10:04:34;;;;;;;10.63;6.80;;;7.80;99.90;;;;;;6129261;19;19922;-63
2022/11/13 10:06:54;;;;;;;12.02;6.90;;;8.40;99.90;;;;;;6129526;19;19926;-64
2022/11/13 10:09:02;;;;;;;9.70;6.70;;;7.90;99.90;;;;;;6129455;19;19910;-64
2022/11/13 10:11:17;;;;;;;10.02;7.57;;;8.00;99.90;;;;;;6129371;19;19911;-64
2022/11/13 10:13:26;;;;;;;13.20;7.50;;;8.20;99.90;;;;;;6127587;19;19930;-64
2022/11/13 10:15:29;;;;;;;;;;;8.20;99.90;;;;;;6131668;19;19922;-64
2022/11/13 10:17:38;;;;;;;24.50;10.45;;;8.30;99.90;;;;;;6130860;19;19914;-64
2022/11/13 10:19:47;;;;;;;13.77;7.95;;;8.60;99.90;;;;;;6129249;19;20339;-64
2022/11/13 10:21:57;;;;;;;10.50;6.40;;;8.50;99.90;;;;;;6129098;19;19921;-64
2022/11/13 10:24:06;;;;;;;11.73;7.10;;;8.50;99.90;;;;;;6129216;19;19927;-64
2022/11/13 10:26:18;;;;;;;8.35;7.03;;;9.00;99.90;;;;;;6128456;19;19922;-64
2022/11/13 10:28:24;;;;;;;10.32;6.50;;;9.00;99.90;;;;;;6129313;19;19981;-64
2022/11/13 10:30:28;;;;;;;10.43;7.18;;;9.40;99.90;;;;;;6129025;19;19914;-64
2022/11/13 10:32:34;;;;;;;10.13;6.47;;;9.00;99.90;;;;;;6127945;19;19931;-64
2022/11/13 10:34:38;;;;;;;11.73;6.68;;;9.20;99.90;;;;;;6127706;19;19914;-64
2022/11/13 10:36:52;;;;;;;11.20;7.22;;;9.30;99.90;;;;;;6128953;19;19942;-64
2022/11/13 10:39:00;;;;;;;;;;;9.80;99.90;;;;;;6130874;19;19919;-64
2022/11/13 10:41:09;;;;;;;11.13;7.22;;;9.20;99.90;;;;;;6129051;19;19943;-64
2022/11/13 10:43:19;;;;;;;10.57;7.07;;;9.20;99.90;;;;;;6128621;19;20260;-64
2022/11/13 10:45:24;;;;;;;9.93;7.18;;;9.40;99.90;;;;;;6128721;19;19918;-64
2022/11/13 10:47:30;;;;;;;10.50;6.38;;;9.50;99.90;;;;;;6128696;19;19926;-64
2022/11/13 10:49:33;;;;;;;13.05;6.53;;;9.10;99.90;;;;;;6128667;19;19911;-65
2022/11/13 10:51:38;;;;;;;10.23;6.57;;;;;;;;;;6128010;19;19919;-64
2022/11/13 10:53:46;;;;;;;10.45;6.47;;;9.30;99.90;;;;;;6127624;19;19946;-68
2022/11/13 10:55:55;;;;;;;10.02;6.25;;;9.30;99.90;;;;;;6126391;19;20253;-65
2022/11/13 10:58:01;;;;;;;10.63;6.72;;;9.90;99.90;;;;;;6128247;19;19915;-64
2022/11/13 11:00:24;;;;;;;9.65;6.40;;;9.90;99.90;;;;;;6128355;19;19915;-65
2022/11/13 11:02:30;;;;;;;7.97;6.20;;;9.70;99.90;;;;;;6128094;19;20276;-65
2022/11/13 11:04:34;;;;;;;10.60;6.50;;;;;;;;;;6128034;19;20296;-64
2022/11/13 11:06:40;;;;;;;10.32;7.22;;;10.30;99.90;;;;;;6128318;19;19917;-65
2022/11/13 11:08:44;;;;;;;10.43;6.50;;;10.70;99.90;;;;;;6127850;19;19950;-65